createdAt,value
2017-05-31T00:00:27.495Z,983.4
2017-05-31T00:01:30.290Z,983.5
2017-05-31T00:02:32.917Z,983.3
2017-05-31T00:03:35.594Z,983.5
2017-05-31T00:04:38.553Z,983.6
2017-05-31T00:05:41.055Z,983.5
2017-05-31T00:06:43.494Z,983.5
2017-05-31T00:07:46.006Z,983.6
2017-05-31T00:08:48.488Z,983.6
2017-05-31T00:09:50.938Z,983.6
2017-05-31T00:10:53.390Z,983.6
2017-05-31T00:11:55.800Z,983.7
2017-05-31T00:12:58.210Z,983.6
2017-05-31T00:14:00.668Z,983.6
2017-05-31T00:15:05.641Z,983.7
2017-05-31T00:16:08.172Z,983.7
2017-05-31T00:17:10.697Z,983.8
2017-05-31T00:18:13.308Z,983.7
2017-05-31T00:19:15.811Z,983.7
2017-05-31T00:20:19.481Z,983.7
2017-05-31T00:21:22.074Z,983.7
2017-05-31T00:22:24.620Z,983.7
2017-05-31T00:23:27.102Z,983.7
2017-05-31T00:24:29.665Z,983.7
2017-05-31T00:25:32.175Z,983.7
2017-05-31T00:26:34.819Z,983.8
2017-05-31T00:27:37.294Z,983.7
2017-05-31T00:28:39.816Z,983.8
2017-05-31T00:29:42.313Z,983.8
2017-05-31T00:30:45.556Z,983.7
2017-05-31T00:31:48.203Z,983.8
2017-05-31T00:32:50.653Z,983.8
2017-05-31T00:33:53.112Z,983.8
2017-05-31T00:34:55.775Z,983.8
2017-05-31T00:35:58.326Z,983.8
2017-05-31T00:37:02.416Z,983.8
2017-05-31T00:38:05.439Z,983.8
2017-05-31T00:39:08.059Z,983.8
2017-05-31T00:40:11.881Z,983.8
2017-05-31T00:41:14.573Z,983.8
2017-05-31T00:42:17.139Z,983.8
2017-05-31T00:43:19.644Z,983.8
2017-05-31T00:44:22.213Z,983.8
2017-05-31T00:45:25.589Z,983.7
2017-05-31T00:46:28.541Z,983.7
2017-05-31T00:47:31.097Z,983.8
2017-05-31T00:48:33.637Z,983.8
2017-05-31T00:49:37.222Z,983.8
2017-05-31T00:50:40.009Z,983.5
2017-05-31T00:51:42.421Z,983.7
2017-05-31T00:52:44.830Z,983.7
2017-05-31T00:53:47.317Z,983.8
2017-05-31T00:54:49.716Z,983.7
2017-05-31T00:55:52.178Z,983.7
2017-05-31T00:56:54.718Z,983.8
2017-05-31T00:57:57.218Z,983.8
2017-05-31T00:58:59.731Z,983.8
2017-05-31T01:00:04.850Z,983.8
2017-05-31T01:01:08.528Z,983.6
2017-05-31T01:02:10.951Z,983.9
2017-05-31T01:03:13.481Z,983.9
2017-05-31T01:04:16.113Z,983.9
2017-05-31T01:05:18.710Z,983.8
2017-05-31T01:06:21.211Z,983.8
2017-05-31T01:07:23.941Z,983.9
2017-05-31T01:08:26.475Z,984
2017-05-31T01:09:29.136Z,983.7
2017-05-31T01:10:31.951Z,983.9
2017-05-31T01:11:35.370Z,983.9
2017-05-31T01:12:37.795Z,984
2017-05-31T01:13:40.267Z,984
2017-05-31T01:14:42.752Z,984
2017-05-31T01:15:45.235Z,984
2017-05-31T01:16:47.755Z,983.9
2017-05-31T01:17:50.217Z,984.1
2017-05-31T01:18:52.654Z,984
2017-05-31T01:19:55.071Z,984
2017-05-31T01:20:57.794Z,984
2017-05-31T01:22:00.480Z,984.1
2017-05-31T01:23:02.993Z,984.1
2017-05-31T01:24:05.651Z,984.1
2017-05-31T01:25:09.200Z,984.1
2017-05-31T01:26:12.604Z,984.1
2017-05-31T01:27:15.095Z,984.1
2017-05-31T01:28:17.619Z,984.1
2017-05-31T01:29:20.134Z,984.2
2017-05-31T01:30:22.975Z,984.1
2017-05-31T01:31:25.440Z,984.2
2017-05-31T01:32:27.922Z,984.2
2017-05-31T01:33:30.844Z,984
2017-05-31T01:34:33.338Z,984.2
2017-05-31T01:35:36.039Z,984.2
2017-05-31T01:36:38.539Z,984.2
2017-05-31T01:37:40.978Z,984.2
2017-05-31T01:38:43.591Z,984.2
2017-05-31T01:39:46.048Z,984.3
2017-05-31T01:40:48.570Z,984.2
2017-05-31T01:41:51.062Z,984.2
2017-05-31T01:42:53.519Z,984.2
2017-05-31T01:43:56.010Z,984.2
2017-05-31T01:44:58.578Z,984.2
2017-05-31T01:46:01.084Z,984.3
2017-05-31T01:47:03.809Z,984.3
2017-05-31T01:48:09.782Z,984.3
2017-05-31T01:49:12.339Z,984.2
2017-05-31T01:50:16.829Z,984.3
2017-05-31T01:51:19.288Z,984.2
2017-05-31T01:52:21.964Z,984.2
2017-05-31T01:53:24.516Z,984.3
2017-05-31T01:54:27.139Z,984.3
2017-05-31T01:55:29.748Z,984.3
2017-05-31T01:56:32.275Z,984.3
2017-05-31T01:57:34.781Z,984.3
2017-05-31T01:58:37.507Z,984.2
2017-05-31T01:59:39.920Z,984.2
2017-05-31T02:00:42.820Z,984.2
2017-05-31T02:01:45.248Z,984.2
2017-05-31T02:02:47.841Z,984.2
2017-05-31T02:03:50.328Z,984.2
2017-05-31T02:04:52.757Z,984.2
2017-05-31T02:05:55.238Z,984.2
2017-05-31T02:06:57.708Z,984.2
2017-05-31T02:08:00.143Z,984.2
2017-05-31T02:09:03.353Z,984.2
2017-05-31T02:10:06.748Z,984.2
2017-05-31T02:11:09.637Z,984.2
2017-05-31T02:12:12.082Z,984.2
2017-05-31T02:13:14.649Z,984.1
2017-05-31T02:14:17.165Z,984.1
2017-05-31T02:15:19.668Z,984
2017-05-31T02:16:22.937Z,984
2017-05-31T02:17:25.431Z,984
2017-05-31T02:18:27.993Z,983.9
2017-05-31T02:19:31.309Z,984
2017-05-31T02:20:34.029Z,983.9
2017-05-31T02:21:36.439Z,983.7
2017-05-31T02:22:38.916Z,984
2017-05-31T02:23:42.070Z,983.9
2017-05-31T02:24:44.543Z,984
2017-05-31T02:25:47.023Z,984
2017-05-31T02:26:49.516Z,984
2017-05-31T02:27:51.976Z,984
2017-05-31T02:28:54.493Z,984.1
2017-05-31T02:29:57.027Z,984
2017-05-31T02:30:59.600Z,984
2017-05-31T02:32:02.066Z,984.1
2017-05-31T02:33:05.309Z,984
2017-05-31T02:34:09.488Z,984.1
2017-05-31T02:35:13.126Z,984.1
2017-05-31T02:36:15.631Z,984.1
2017-05-31T02:37:18.261Z,984
2017-05-31T02:38:20.806Z,984
2017-05-31T02:39:23.567Z,984.1
2017-05-31T02:40:26.169Z,984.1
2017-05-31T02:41:28.753Z,984.1
2017-05-31T02:42:31.287Z,984.1
2017-05-31T02:43:33.946Z,984.2
2017-05-31T02:44:36.507Z,984.1
2017-05-31T02:45:40.040Z,984.1
2017-05-31T02:46:42.639Z,984.1
2017-05-31T02:47:45.085Z,984.1
2017-05-31T02:48:48.402Z,984.2
2017-05-31T02:49:50.844Z,984.2
2017-05-31T02:50:53.340Z,984.2
2017-05-31T02:51:55.779Z,983.9
2017-05-31T02:52:58.172Z,984.2
2017-05-31T02:54:00.656Z,984.2
2017-05-31T02:55:04.760Z,984.2
2017-05-31T02:56:07.251Z,984.2
2017-05-31T02:57:10.727Z,984.2
2017-05-31T02:58:13.194Z,984.2
2017-05-31T02:59:15.752Z,984.2
2017-05-31T03:00:19.286Z,984.2
2017-05-31T03:01:21.867Z,984.2
2017-05-31T03:02:24.422Z,984.2
2017-05-31T03:03:26.886Z,984.2
2017-05-31T03:04:29.363Z,984.1
2017-05-31T03:05:31.950Z,984.2
2017-05-31T03:06:34.413Z,984.2
2017-05-31T03:07:36.835Z,984.1
2017-05-31T03:08:39.275Z,984.2
2017-05-31T03:09:41.713Z,984.2
2017-05-31T03:10:44.172Z,984.2
2017-05-31T03:11:46.879Z,984.2
2017-05-31T03:12:49.380Z,984.2
2017-05-31T03:13:51.827Z,984.2
2017-05-31T03:14:54.524Z,984.2
2017-05-31T03:15:56.982Z,984.3
2017-05-31T03:16:59.448Z,984
2017-05-31T03:18:01.901Z,984.2
2017-05-31T03:19:04.363Z,984.3
2017-05-31T03:20:08.292Z,984.2
2017-05-31T03:21:10.744Z,984.3
2017-05-31T03:22:13.233Z,984.3
2017-05-31T03:23:15.692Z,984.3
2017-05-31T03:24:18.212Z,984.3
2017-05-31T03:25:20.740Z,984.3
2017-05-31T03:26:23.171Z,984.3
2017-05-31T03:27:25.670Z,984.3
2017-05-31T03:28:28.187Z,984.3
2017-05-31T03:29:30.673Z,984.3
2017-05-31T03:30:33.221Z,984.3
2017-05-31T03:31:35.830Z,984.3
2017-05-31T03:32:39.191Z,984.3
2017-05-31T03:33:41.685Z,984.3
2017-05-31T03:34:44.239Z,984.4
2017-05-31T03:35:46.646Z,984.4
2017-05-31T03:36:49.171Z,984.4
2017-05-31T03:37:51.577Z,984.4
2017-05-31T03:38:54.048Z,984.5
2017-05-31T03:39:56.544Z,984.5
2017-05-31T03:40:59.062Z,984.5
2017-05-31T03:42:01.538Z,984.5
2017-05-31T03:43:04.043Z,984.5
2017-05-31T03:44:06.481Z,984.6
2017-05-31T03:45:08.965Z,984.6
2017-05-31T03:46:11.460Z,984.6
2017-05-31T03:47:13.954Z,984.6
2017-05-31T03:48:16.408Z,984.6
2017-05-31T03:49:18.991Z,984.7
2017-05-31T03:50:21.522Z,984.7
2017-05-31T03:51:24.009Z,984.7
2017-05-31T03:52:26.478Z,984.6
2017-05-31T03:53:29.015Z,984.7
2017-05-31T03:54:31.430Z,984.7
2017-05-31T03:55:33.877Z,984.7
2017-05-31T03:56:36.342Z,984.7
2017-05-31T03:57:38.808Z,984.8
2017-05-31T03:58:41.266Z,984.7
2017-05-31T03:59:43.681Z,984.7
2017-05-31T04:00:46.160Z,984.7
2017-05-31T04:01:48.671Z,984.5
2017-05-31T04:02:51.153Z,984.7
2017-05-31T04:03:53.599Z,984.7
2017-05-31T04:04:56.098Z,984.7
2017-05-31T04:05:58.581Z,984.7
2017-05-31T04:07:00.998Z,984.8
2017-05-31T04:08:03.552Z,984.7
2017-05-31T04:09:05.993Z,984.8
2017-05-31T04:10:08.440Z,984.8
2017-05-31T04:11:10.892Z,984.7
2017-05-31T04:12:13.397Z,984.8
2017-05-31T04:13:15.971Z,984.8
2017-05-31T04:14:18.516Z,984.9
2017-05-31T04:15:21.050Z,984.9
2017-05-31T04:16:23.738Z,984.8
2017-05-31T04:17:26.247Z,984.9
2017-05-31T04:18:28.827Z,984.9
2017-05-31T04:19:31.253Z,984.9
2017-05-31T04:20:33.782Z,984.9
2017-05-31T04:21:36.206Z,984.9
2017-05-31T04:22:38.688Z,984.9
2017-05-31T04:23:41.366Z,984.9
2017-05-31T04:24:43.809Z,984.9
2017-05-31T04:25:46.253Z,985
2017-05-31T04:26:48.746Z,985
2017-05-31T04:27:51.216Z,985
2017-05-31T04:28:53.832Z,985
2017-05-31T04:29:56.292Z,985
2017-05-31T04:30:59.092Z,985
2017-05-31T04:32:01.562Z,985
2017-05-31T04:33:04.021Z,985
2017-05-31T04:34:06.411Z,984.9
2017-05-31T04:35:08.934Z,985
2017-05-31T04:36:11.539Z,985
2017-05-31T04:37:14.067Z,985
2017-05-31T04:38:16.699Z,985
2017-05-31T04:39:19.242Z,985.1
2017-05-31T04:40:21.788Z,985.1
2017-05-31T04:41:24.356Z,985.1
2017-05-31T04:42:26.849Z,985.1
2017-05-31T04:43:29.366Z,985.1
2017-05-31T04:44:32.762Z,985.1
2017-05-31T04:45:35.390Z,985.1
2017-05-31T04:46:37.936Z,985.1
2017-05-31T04:47:40.355Z,985.1
2017-05-31T04:48:42.798Z,985.1
2017-05-31T04:49:45.254Z,985.2
2017-05-31T04:50:47.826Z,985
2017-05-31T04:51:50.412Z,985.1
2017-05-31T04:52:52.887Z,985.2
2017-05-31T04:53:55.378Z,985.2
2017-05-31T04:54:57.891Z,985.2
2017-05-31T04:56:01.061Z,985.2
2017-05-31T04:57:03.583Z,985.3
2017-05-31T04:58:06.967Z,985.3
2017-05-31T04:59:09.394Z,985.3
2017-05-31T05:00:13.978Z,985.3
2017-05-31T05:01:16.529Z,985.3
2017-05-31T05:02:20.090Z,985.3
2017-05-31T05:03:22.629Z,985.3
2017-05-31T05:04:25.313Z,985.3
2017-05-31T05:05:28.127Z,985.3
2017-05-31T05:06:30.607Z,985.3
2017-05-31T05:07:33.958Z,985.3
2017-05-31T05:08:36.453Z,985.3
2017-05-31T05:09:39.078Z,985.3
2017-05-31T05:10:41.612Z,985.3
2017-05-31T05:11:44.304Z,985.3
2017-05-31T05:12:46.775Z,985.3
2017-05-31T05:13:49.392Z,985.4
2017-05-31T05:14:52.573Z,985.4
2017-05-31T05:15:55.109Z,985.4
2017-05-31T05:16:57.915Z,985.4
2017-05-31T05:18:00.422Z,985.4
2017-05-31T05:19:02.877Z,985.4
2017-05-31T05:20:10.701Z,985.4
2017-05-31T05:21:13.168Z,985.4
2017-05-31T05:22:15.662Z,985.4
2017-05-31T05:23:18.198Z,985.5
2017-05-31T05:24:21.762Z,985.5
2017-05-31T05:26:36.298Z,985.4
2017-05-31T05:27:42.521Z,985.4
2017-05-31T05:28:45.054Z,985.4
2017-05-31T05:29:47.506Z,985.5
2017-05-31T05:30:50.132Z,985.4
2017-05-31T05:31:53.692Z,985.5
2017-05-31T05:32:56.654Z,985.5
2017-05-31T05:33:59.270Z,985.5
2017-05-31T05:35:01.882Z,985.4
2017-05-31T05:36:04.334Z,985.4
2017-05-31T05:37:08.078Z,985.4
2017-05-31T05:38:10.583Z,985.5
2017-05-31T05:39:13.319Z,985.3
2017-05-31T05:40:16.525Z,985.5
2017-05-31T05:41:19.830Z,985.5
2017-05-31T05:42:22.394Z,985.5
2017-05-31T05:43:25.006Z,985.6
2017-05-31T05:44:27.528Z,985.6
2017-05-31T05:45:30.836Z,985.5
2017-05-31T05:46:33.332Z,985.5
2017-05-31T05:47:35.769Z,985.5
2017-05-31T05:48:38.315Z,985.5
2017-05-31T05:49:41.803Z,985.5
2017-05-31T05:50:44.399Z,985.5
2017-05-31T05:51:46.932Z,985.5
2017-05-31T05:52:49.554Z,985.5
2017-05-31T05:53:52.046Z,985.3
2017-05-31T05:54:54.532Z,985.5
2017-05-31T05:55:57.189Z,985.6
2017-05-31T05:56:59.726Z,985.6
2017-05-31T05:58:02.250Z,985.6
2017-05-31T05:59:05.024Z,985.6
2017-05-31T06:00:14.168Z,985.6
2017-05-31T06:01:16.708Z,985.6
2017-05-31T06:02:19.281Z,985.6
2017-05-31T06:03:22.449Z,985.6
2017-05-31T06:04:25.003Z,985.4
2017-05-31T06:05:30.566Z,985.7
2017-05-31T06:06:33.183Z,985.6
2017-05-31T06:07:36.656Z,985.7
2017-05-31T06:08:40.108Z,985.6
2017-05-31T06:09:43.614Z,985.6
2017-05-31T06:10:46.807Z,985.7
2017-05-31T06:11:49.364Z,985.5
2017-05-31T06:12:51.888Z,985.7
2017-05-31T06:13:54.523Z,985.7
2017-05-31T06:15:05.567Z,985.6
2017-05-31T06:16:09.532Z,985.4
2017-05-31T06:17:13.555Z,985.5
2017-05-31T06:18:16.908Z,985.7
2017-05-31T06:19:19.632Z,985.6
2017-05-31T06:20:22.407Z,985.7
2017-05-31T06:21:25.551Z,985.6
2017-05-31T06:22:28.985Z,985.7
2017-05-31T06:23:31.524Z,985.7
2017-05-31T06:24:34.078Z,985.8
2017-05-31T06:25:37.413Z,985.8
2017-05-31T06:26:41.483Z,985.8
2017-05-31T06:27:44.053Z,985.8
2017-05-31T06:28:46.608Z,985.7
2017-05-31T06:29:51.219Z,985.7
2017-05-31T06:30:53.704Z,985.8
2017-05-31T06:31:56.233Z,985.8
2017-05-31T06:32:58.785Z,985.8
2017-05-31T06:34:01.472Z,985.8
2017-05-31T06:35:11.497Z,985.8
2017-05-31T06:36:14.154Z,985.9
2017-05-31T06:37:16.993Z,985.9
2017-05-31T06:38:21.415Z,985.9
2017-05-31T06:39:24.910Z,986
2017-05-31T06:40:27.538Z,986
2017-05-31T06:42:41.713Z,985.9
2017-05-31T06:43:44.224Z,986
2017-05-31T06:44:46.803Z,986
2017-05-31T06:45:49.538Z,986.1
2017-05-31T06:46:52.045Z,986
2017-05-31T06:47:54.588Z,986
2017-05-31T06:48:57.688Z,986.1
2017-05-31T06:50:00.362Z,986.1
2017-05-31T06:51:04.302Z,986.1
2017-05-31T06:52:08.435Z,986.1
2017-05-31T06:53:11.864Z,986
2017-05-31T06:54:22.816Z,985.9
2017-05-31T06:55:32.978Z,986
2017-05-31T06:56:37.137Z,986
2017-05-31T06:57:40.710Z,986.1
2017-05-31T06:58:45.609Z,986.1
2017-05-31T06:59:48.434Z,986.1
2017-05-31T07:00:54.535Z,986.1
2017-05-31T07:01:57.098Z,986
2017-05-31T07:02:59.752Z,986.1
2017-05-31T07:04:02.358Z,986.2
2017-05-31T07:05:10.569Z,986.2
2017-05-31T07:06:13.899Z,986.1
2017-05-31T07:07:17.268Z,986.2
2017-05-31T07:08:19.919Z,986.1
2017-05-31T07:09:23.626Z,986.1
2017-05-31T07:10:29.504Z,986.2
2017-05-31T07:11:33.662Z,986.3
2017-05-31T07:12:36.757Z,986.2
2017-05-31T07:13:39.821Z,986.2
2017-05-31T07:14:43.587Z,986.2
2017-05-31T07:15:47.455Z,986.2
2017-05-31T07:16:50.089Z,986.2
2017-05-31T07:17:52.579Z,986.3
2017-05-31T07:18:55.129Z,986.2
2017-05-31T07:19:57.754Z,986.2
2017-05-31T07:21:00.337Z,986.1
2017-05-31T07:22:02.889Z,986.2
2017-05-31T07:23:10.073Z,986.2
2017-05-31T07:24:13.479Z,986.1
2017-05-31T07:25:21.018Z,986.2
2017-05-31T07:26:25.558Z,986.2
2017-05-31T07:27:28.828Z,986.1
2017-05-31T07:28:32.477Z,986.2
2017-05-31T07:29:37.010Z,986.2
2017-05-31T07:30:41.365Z,986
2017-05-31T07:31:44.031Z,986
2017-05-31T07:32:46.555Z,986.1
2017-05-31T07:33:56.951Z,986.1
2017-05-31T07:36:17.386Z,986
2017-05-31T07:37:21.935Z,986
2017-05-31T07:38:25.763Z,986
2017-05-31T07:39:28.380Z,986
2017-05-31T07:40:33.834Z,986
2017-05-31T07:41:37.101Z,986.1
2017-05-31T07:42:39.804Z,986.1
2017-05-31T07:43:42.934Z,986.1
2017-05-31T07:44:45.550Z,986.1
2017-05-31T07:45:51.675Z,986.1
2017-05-31T07:46:59.545Z,986.1
2017-05-31T07:48:06.199Z,986.1
2017-05-31T07:49:10.939Z,986.1
2017-05-31T07:50:18.924Z,986
2017-05-31T07:51:21.612Z,985.9
2017-05-31T07:52:25.110Z,986.1
2017-05-31T07:53:29.799Z,986.1
2017-05-31T07:54:32.555Z,986
2017-05-31T07:55:39.557Z,986
2017-05-31T07:56:46.199Z,985.9
2017-05-31T07:57:48.905Z,986.1
2017-05-31T07:58:51.401Z,986
2017-05-31T07:59:54.944Z,986.1
2017-05-31T08:00:57.799Z,986.1
2017-05-31T08:02:00.928Z,986.1
2017-05-31T08:03:05.159Z,986.1
2017-05-31T08:04:08.889Z,986
2017-05-31T08:06:27.528Z,986
2017-05-31T08:07:31.985Z,986.1
2017-05-31T08:08:36.608Z,986
2017-05-31T08:09:42.031Z,986.1
2017-05-31T08:10:45.401Z,986
2017-05-31T08:11:48.940Z,986.1
2017-05-31T08:12:52.659Z,986
2017-05-31T08:13:55.302Z,986
2017-05-31T08:14:57.866Z,986.1
2017-05-31T08:16:06.630Z,985.9
2017-05-31T08:17:15.069Z,986
2017-05-31T08:18:19.818Z,985.9
2017-05-31T08:20:36.773Z,986.2
2017-05-31T08:21:39.600Z,986.2
2017-05-31T08:22:42.275Z,986
2017-05-31T08:23:45.597Z,986.1
2017-05-31T08:24:48.820Z,986
2017-05-31T08:25:56.038Z,986
2017-05-31T08:26:59.379Z,986
2017-05-31T08:29:10.790Z,986.1
2017-05-31T08:30:17.708Z,986.1
2017-05-31T08:31:22.017Z,986.2
2017-05-31T08:32:28.283Z,986.1
2017-05-31T08:33:31.945Z,986.1
2017-05-31T08:34:35.838Z,986.1
2017-05-31T08:35:39.740Z,986
2017-05-31T08:36:42.615Z,986.2
2017-05-31T08:37:45.285Z,986.2
2017-05-31T08:38:49.386Z,986.1
2017-05-31T08:39:54.350Z,986
2017-05-31T08:40:57.089Z,986.1
2017-05-31T08:42:00.341Z,986
2017-05-31T08:43:05.501Z,986.2
2017-05-31T08:44:08.918Z,986.2
2017-05-31T08:45:13.713Z,986.1
2017-05-31T08:46:16.362Z,986.2
2017-05-31T08:47:19.157Z,986.3
2017-05-31T08:48:24.624Z,986.2
2017-05-31T08:49:28.673Z,986.3
2017-05-31T08:50:32.731Z,986.2
2017-05-31T08:51:36.490Z,986.2
2017-05-31T08:52:39.650Z,986.2
2017-05-31T08:53:43.651Z,986.1
2017-05-31T08:54:50.730Z,986.1
2017-05-31T08:55:58.068Z,986.1
2017-05-31T08:57:01.376Z,986.1
2017-05-31T08:58:05.996Z,986.2
2017-05-31T08:59:10.070Z,986.2
2017-05-31T09:00:17.880Z,986.2
2017-05-31T09:01:21.945Z,986.1
2017-05-31T09:02:27.778Z,986
2017-05-31T09:03:31.334Z,986.2
2017-05-31T09:04:34.128Z,986.3
2017-05-31T09:05:38.923Z,986.2
2017-05-31T09:06:42.922Z,986.2
2017-05-31T09:07:45.745Z,986.2
2017-05-31T09:08:48.280Z,986.2
2017-05-31T09:09:50.933Z,986.2
2017-05-31T09:10:55.863Z,986.2
2017-05-31T09:11:58.392Z,986.2
2017-05-31T09:13:02.108Z,986.2
2017-05-31T09:14:08.897Z,986
2017-05-31T09:15:13.073Z,986.2
2017-05-31T09:16:15.945Z,986.1
2017-05-31T09:17:20.560Z,986.3
2017-05-31T09:18:23.207Z,986.3
2017-05-31T09:19:26.833Z,986
2017-05-31T09:20:31.093Z,986.2
2017-05-31T09:21:33.862Z,986.1
2017-05-31T09:22:36.416Z,986.2
2017-05-31T09:23:39.279Z,986.1
2017-05-31T09:24:41.954Z,986.1
2017-05-31T09:25:47.300Z,986.3
2017-05-31T09:26:50.561Z,986.4
2017-05-31T09:27:53.233Z,986.2
2017-05-31T09:28:56.445Z,986.2
2017-05-31T09:30:01.004Z,986.2
2017-05-31T09:31:06.610Z,986.4
2017-05-31T09:32:12.062Z,986.3
2017-05-31T09:33:15.549Z,986.3
2017-05-31T09:34:19.061Z,986.3
2017-05-31T09:35:22.288Z,986.2
2017-05-31T09:36:25.050Z,986.3
2017-05-31T09:37:28.337Z,986.4
2017-05-31T09:38:33.411Z,986.2
2017-05-31T09:39:36.323Z,986.4
2017-05-31T09:40:41.701Z,986.3
2017-05-31T09:41:45.490Z,986.1
2017-05-31T09:42:48.366Z,986.2
2017-05-31T09:43:53.679Z,986.2
2017-05-31T09:44:56.329Z,986.1
2017-05-31T09:45:59.018Z,986.1
2017-05-31T09:47:01.576Z,986.1
2017-05-31T09:48:09.280Z,986.1
2017-05-31T09:49:14.219Z,986.2
2017-05-31T09:50:21.729Z,986.4
2017-05-31T09:51:27.225Z,986.2
2017-05-31T09:52:31.334Z,986.1
2017-05-31T09:53:34.621Z,986.1
2017-05-31T09:54:37.907Z,986.1
2017-05-31T09:55:44.618Z,986.1
2017-05-31T09:56:49.526Z,986.3
2017-05-31T09:57:52.130Z,986.3
2017-05-31T09:58:54.675Z,986.4
2017-05-31T09:59:57.882Z,986.4
2017-05-31T10:01:08.230Z,986.4
2017-05-31T10:02:16.913Z,986.5
2017-05-31T10:03:20.528Z,986.5
2017-05-31T10:04:25.535Z,986.5
2017-05-31T10:05:40.156Z,986.5
2017-05-31T10:06:42.913Z,986.5
2017-05-31T10:07:45.721Z,986.4
2017-05-31T10:08:49.813Z,986.5
2017-05-31T10:09:53.118Z,986.5
2017-05-31T10:10:57.536Z,986.5
2017-05-31T10:12:00.218Z,986.5
2017-05-31T10:13:08.340Z,986.5
2017-05-31T10:14:11.863Z,986.5
2017-05-31T10:15:17.669Z,986.5
2017-05-31T10:16:24.004Z,986.5
2017-05-31T10:17:29.976Z,986.5
2017-05-31T10:18:35.441Z,986.4
2017-05-31T10:19:43.767Z,986.4
2017-05-31T10:20:54.492Z,986.4
2017-05-31T10:21:57.549Z,986.3
2017-05-31T10:23:00.200Z,986.3
2017-05-31T10:24:02.811Z,986.3
2017-05-31T10:25:19.133Z,986.2
2017-05-31T10:26:21.994Z,986.2
2017-05-31T10:27:26.024Z,986.3
2017-05-31T10:28:32.654Z,986.2
2017-05-31T10:29:36.733Z,986.2
2017-05-31T10:30:39.711Z,986.2
2017-05-31T10:31:42.303Z,986.3
2017-05-31T10:32:46.029Z,986.4
2017-05-31T10:33:48.808Z,986.3
2017-05-31T10:34:52.152Z,986.3
2017-05-31T10:35:54.873Z,986.4
2017-05-31T10:36:58.222Z,986.3
2017-05-31T10:38:01.447Z,986.3
2017-05-31T10:40:17.903Z,986.4
2017-05-31T10:41:24.738Z,986.4
2017-05-31T10:42:30.237Z,986.4
2017-05-31T10:43:33.539Z,986.2
2017-05-31T10:44:36.078Z,986.4
2017-05-31T10:45:41.417Z,986.4
2017-05-31T10:46:44.933Z,986.4
2017-05-31T10:47:47.614Z,986.4
2017-05-31T10:48:50.351Z,986.4
2017-05-31T10:49:54.429Z,986.4
2017-05-31T10:50:58.113Z,986.5
2017-05-31T10:52:00.806Z,986.5
2017-05-31T10:53:04.422Z,986.4
2017-05-31T10:54:09.209Z,986.4
2017-05-31T10:55:14.516Z,986.3
2017-05-31T10:56:20.301Z,986.3
2017-05-31T10:57:26.071Z,986.4
2017-05-31T10:58:31.424Z,986.2
2017-05-31T10:59:40.807Z,986.4
2017-05-31T11:00:44.973Z,986.5
2017-05-31T11:01:51.187Z,986.4
2017-05-31T11:02:57.793Z,986.4
2017-05-31T11:04:01.245Z,986.4
2017-05-31T11:05:14.472Z,986.5
2017-05-31T11:06:21.512Z,986.4
2017-05-31T11:07:36.483Z,986.4
2017-05-31T11:08:55.781Z,986.5
2017-05-31T11:09:58.434Z,986.4
2017-05-31T11:11:07.099Z,986.4
2017-05-31T11:12:11.684Z,986.4
2017-05-31T11:13:19.123Z,986.4
2017-05-31T11:14:25.745Z,986.4
2017-05-31T11:15:35.559Z,986.3
2017-05-31T11:16:44.315Z,986.3
2017-05-31T11:17:50.693Z,986.3
2017-05-31T11:18:57.514Z,986.4
2017-05-31T11:20:00.596Z,986.3
2017-05-31T11:21:13.428Z,986.4
2017-05-31T11:24:53.372Z,986.3
2017-05-31T11:26:08.535Z,986.4
2017-05-31T11:27:15.357Z,986.6
2017-05-31T11:28:20.452Z,986.5
2017-05-31T11:29:30.340Z,986.4
2017-05-31T11:33:12.394Z,986.6
2017-05-31T11:34:16.852Z,986.5
2017-05-31T11:35:24.807Z,986.4
2017-05-31T11:36:27.732Z,986.4
2017-05-31T11:37:30.758Z,986.3
2017-05-31T11:38:35.463Z,986.2
2017-05-31T11:39:38.149Z,986.4
2017-05-31T11:40:42.366Z,986.3
2017-05-31T11:42:55.242Z,986.3
2017-05-31T11:43:59.243Z,986.4
2017-05-31T11:46:17.965Z,986.3
2017-05-31T11:47:22.060Z,986.3
2017-05-31T11:48:25.939Z,986.2
2017-05-31T11:49:32.239Z,986.3
2017-05-31T11:50:37.275Z,986.2
2017-05-31T11:51:43.557Z,986.2
2017-05-31T11:52:48.503Z,986.2
2017-05-31T11:53:53.045Z,986.2
2017-05-31T11:54:55.686Z,986.2
2017-05-31T11:56:01.516Z,986.2
2017-05-31T11:57:10.162Z,986.2
2017-05-31T11:58:15.465Z,986.2
2017-05-31T11:59:19.650Z,986
2017-05-31T12:00:28.325Z,985.9
2017-05-31T12:01:33.397Z,986
2017-05-31T12:02:37.883Z,986.1
2017-05-31T12:03:41.193Z,986.1
2017-05-31T12:04:44.009Z,986.1
2017-05-31T12:05:47.044Z,986.1
2017-05-31T12:06:50.519Z,986.2
2017-05-31T12:07:54.074Z,986.1
2017-05-31T12:08:56.807Z,986.1
2017-05-31T12:09:59.474Z,986.1
2017-05-31T12:12:15.375Z,986
2017-05-31T12:13:19.616Z,986
2017-05-31T12:14:23.600Z,986.1
2017-05-31T12:15:36.297Z,986
2017-05-31T12:16:40.067Z,986.1
2017-05-31T12:17:46.247Z,985.9
2017-05-31T12:18:49.670Z,986.1
2017-05-31T12:19:52.223Z,986
2017-05-31T12:21:03.829Z,986.1
2017-05-31T12:22:12.572Z,986.2
2017-05-31T12:23:15.896Z,986.1
2017-05-31T12:24:19.959Z,986.1
2017-05-31T12:25:22.604Z,986.1
2017-05-31T12:26:26.759Z,986.2
2017-05-31T12:27:30.451Z,986
2017-05-31T12:28:33.739Z,986.1
2017-05-31T12:29:36.444Z,986
2017-05-31T12:30:42.016Z,986.1
2017-05-31T12:31:46.534Z,985.9
2017-05-31T12:32:50.608Z,986.1
2017-05-31T12:33:56.996Z,986.1
2017-05-31T12:35:00.401Z,986
2017-05-31T12:36:11.789Z,985.9
2017-05-31T12:37:15.649Z,986
2017-05-31T12:38:29.760Z,985.9
2017-05-31T12:39:35.499Z,985.9
2017-05-31T12:40:39.316Z,986
2017-05-31T12:41:43.581Z,986
2017-05-31T12:42:52.102Z,985.9
2017-05-31T12:43:58.017Z,985.9
2017-05-31T12:46:13.618Z,986.1
2017-05-31T12:47:19.696Z,986.1
2017-05-31T12:48:28.339Z,986.1
2017-05-31T12:49:35.226Z,985.9
2017-05-31T12:50:48.197Z,986
2017-05-31T12:51:56.317Z,986.1
2017-05-31T12:52:58.911Z,986.1
2017-05-31T12:54:15.607Z,985.9
2017-05-31T12:55:31.701Z,986.1
2017-05-31T12:56:35.174Z,986.1
2017-05-31T12:57:43.361Z,986.1
2017-05-31T12:58:46.305Z,986.1
2017-05-31T12:59:50.986Z,986.1
2017-05-31T13:00:57.512Z,986.1
2017-05-31T13:02:01.230Z,986.1
2017-05-31T13:03:10.003Z,985.8
2017-05-31T13:04:13.914Z,986.1
2017-05-31T13:05:25.832Z,986.1
2017-05-31T13:06:32.176Z,986
2017-05-31T13:07:34.949Z,986
2017-05-31T13:08:38.483Z,986
2017-05-31T13:09:41.209Z,985.8
2017-05-31T13:10:45.735Z,986
2017-05-31T13:11:48.381Z,986
2017-05-31T13:12:51.030Z,986
2017-05-31T13:13:53.583Z,986
2017-05-31T13:14:56.387Z,986
2017-05-31T13:15:59.926Z,986
2017-05-31T13:17:04.041Z,986
2017-05-31T13:18:11.904Z,985.9
2017-05-31T13:19:19.611Z,985.9
2017-05-31T13:20:25.653Z,985.9
2017-05-31T13:21:28.603Z,985.9
2017-05-31T13:22:32.274Z,985.8
2017-05-31T13:23:36.924Z,985.9
2017-05-31T13:24:40.101Z,985.9
2017-05-31T13:25:46.676Z,985.8
2017-05-31T13:26:51.781Z,985.8
2017-05-31T13:27:55.116Z,985.9
2017-05-31T13:28:58.847Z,985.9
2017-05-31T13:31:22.401Z,985.9
2017-05-31T13:32:25.086Z,985.9
2017-05-31T13:33:33.495Z,985.8
2017-05-31T13:34:42.758Z,985.8
2017-05-31T13:35:47.319Z,985.9
2017-05-31T13:36:56.117Z,985.9
2017-05-31T13:38:05.833Z,985.9
2017-05-31T13:39:13.901Z,985.9
2017-05-31T13:40:22.147Z,985.9
2017-05-31T13:41:27.407Z,985.9
2017-05-31T13:42:34.550Z,985.8
2017-05-31T13:43:39.586Z,985.8
2017-05-31T13:44:46.882Z,985.9
2017-05-31T13:45:51.788Z,985.8
2017-05-31T13:47:02.341Z,985.8
2017-05-31T13:48:14.672Z,985.8
2017-05-31T13:50:37.294Z,985.8
2017-05-31T13:51:41.342Z,985.8
2017-05-31T13:52:53.866Z,985.8
2017-05-31T13:53:56.511Z,985.8
2017-05-31T13:54:59.093Z,985.8
2017-05-31T13:56:06.775Z,985.8
2017-05-31T13:58:22.840Z,985.8
2017-05-31T13:59:27.307Z,985.8
2017-05-31T14:00:31.381Z,985.7
2017-05-31T14:01:33.950Z,985.6
2017-05-31T14:02:41.297Z,985.5
2017-05-31T14:03:47.151Z,985.5
2017-05-31T14:04:57.201Z,985.7
2017-05-31T14:07:22.039Z,985.4
2017-05-31T14:08:26.581Z,985.6
2017-05-31T14:09:34.627Z,985.6
2017-05-31T14:10:39.302Z,985.6
2017-05-31T14:11:43.686Z,985.6
2017-05-31T14:12:46.445Z,985.4
2017-05-31T14:13:51.002Z,985.6